Terminal Aerodrome Forecast
Issued by NWS

Home | Current Version | Previous Version | Text Only | Print | Product List | Glossary On
Versions: 1 2 3 4 5 6 7 8 9 10 11 12
000
FTUS46 KLOX 261100
TAFLGB
TAF
KLGB 261135Z 2612/2712 VRB05KT P6SM BKN120 OVC150
     FM262000 11006KT P6SM VCSH BKN080 OVC120
     FM270100 22009KT P6SM -RA BKN040 OVC080
     FM270700 VRB05KT P6SM VCSH BKN080 OVC100=

USA.gov is the U.S. government's official web portal to all federal, state and local government web resources and services.